Time;durP1;ratioP1;P1;durP2;ratioP2;P2;SDS_P1;SDS_P2;PMS_P1;PMS_P2;Temp;Humidity;BMP_temperature;BMP_pressure;BME280_temperature;BME280_humidity;BME280_pressure;Samples;Min_cycle;Max_cycle;Signal;HPM_P1;HPM_P2
2023/06/30 00:01:48;;;;;;;45.40;41.13;;;20.40;99.90;;;;;;5069893;28;20047;-71
2023/06/30 00:04:16;;;;;;;47.10;43.20;;;20.40;99.90;;;;;;5071698;28;20032;-71
2023/06/30 00:06:43;;;;;;;45.78;41.65;;;20.40;99.90;;;;;;5068815;28;20177;-71
2023/06/30 00:09:08;;;;;;;51.05;46.83;;;20.40;99.90;;;;;;5069146;28;20109;-71
2023/06/30 00:11:35;;;;;;;48.65;44.80;;;20.20;99.90;;;;;;5073156;28;20125;-73
2023/06/30 00:14:01;;;;;;;52.80;48.10;;;20.10;99.90;;;;;;5072224;28;20024;-72
2023/06/30 00:16:27;;;;;;;46.70;42.40;;;20.00;99.90;;;;;;5073829;28;20399;-71
2023/06/30 00:18:55;;;;;;;46.72;42.75;;;19.80;99.90;;;;;;5070640;28;20112;-72
2023/06/30 00:21:21;;;;;;;52.80;48.55;;;19.70;99.90;;;;;;5068028;28;20537;-72
2023/06/30 00:23:46;;;;;;;49.50;45.05;;;19.60;99.90;;;;;;5070544;28;20075;-71
2023/06/30 00:26:12;;;;;;;50.13;45.97;;;19.50;99.90;;;;;;5068789;28;20032;-73
2023/06/30 00:28:38;;;;;;;48.35;43.28;;;19.50;99.90;;;;;;5072648;28;20032;-73
2023/06/30 00:31:03;;;;;;;46.13;41.95;;;19.40;99.90;;;;;;5050511;28;20048;-74
2023/06/30 00:33:29;;;;;;;44.97;40.88;;;19.40;99.90;;;;;;5074004;28;20031;-73
2023/06/30 00:35:55;;;;;;;50.33;45.78;;;19.20;99.90;;;;;;5072864;28;20037;-73
2023/06/30 00:38:20;;;;;;;46.10;41.90;;;19.20;99.90;;;;;;5072682;28;20037;-73
2023/06/30 00:40:46;;;;;;;49.83;45.55;;;19.20;99.90;;;;;;5069798;28;20368;-74
2023/06/30 00:43:12;;;;;;;51.83;47.72;;;19.20;99.90;;;;;;5088767;28;20490;-74
2023/06/30 00:45:37;;;;;;;51.33;47.13;;;19.10;99.90;;;;;;5070452;28;21410;-74
2023/06/30 00:48:03;;;;;;;51.40;46.95;;;19.00;99.90;;;;;;5072846;28;20471;-73
2023/06/30 00:50:29;;;;;;;51.33;46.88;;;19.00;99.90;;;;;;5072815;28;20444;-73
2023/06/30 00:52:55;;;;;;;47.88;43.80;;;19.00;99.90;;;;;;5070300;28;20033;-73
2023/06/30 00:55:24;;;;;;;48.05;44.13;;;19.10;99.90;;;;;;5070762;28;20403;-74
2023/06/30 00:57:50;;;;;;;50.20;45.97;;;19.00;99.90;;;;;;5069534;28;20472;-74
2023/06/30 01:00:16;;;;;;;49.55;45.38;;;19.00;99.90;;;;;;5069387;28;20064;-73
2023/06/30 01:02:54;;;;;;;49.53;45.33;;;19.00;99.90;;;;;;5075547;28;20153;-73
2023/06/30 01:05:35;;;;;;;47.40;43.33;;;18.80;99.90;;;;;;5072149;28;20029;-73
2023/06/30 01:08:15;;;;;;;50.60;45.95;;;18.80;99.90;;;;;;5073385;28;20021;-73
2023/06/30 01:10:44;;;;;;;45.97;41.75;;;18.70;99.90;;;;;;5054811;28;20559;-73
2023/06/30 01:13:10;;;;;;;51.47;47.20;;;18.70;99.90;;;;;;5072962;28;20052;-73
2023/06/30 01:15:38;;;;;;;48.95;44.72;;;18.60;99.90;;;;;;5073469;28;20481;-73
2023/06/30 01:18:04;;;;;;;53.65;49.40;;;18.60;99.90;;;;;;5071907;28;20033;-73
2023/06/30 01:20:32;;;;;;;52.67;47.20;;;18.50;99.90;;;;;;5071895;28;20458;-73
2023/06/30 01:23:21;;;;;;;52.47;47.95;;;18.50;99.90;;;;;;5073297;28;20040;-73
2023/06/30 01:25:48;;;;;;;52.80;48.13;;;18.40;99.90;;;;;;5072714;28;20486;-73
2023/06/30 01:28:14;;;;;;;49.50;45.35;;;18.40;99.90;;;;;;5072706;28;20666;-73
2023/06/30 01:30:40;;;;;;;50.25;46.33;;;18.50;99.90;;;;;;5074182;28;20517;-73
2023/06/30 01:33:06;;;;;;;51.80;47.35;;;18.50;99.90;;;;;;5071384;28;20040;-74
2023/06/30 01:35:32;;;;;;;52.85;48.42;;;18.40;99.90;;;;;;5071948;28;20044;-73
2023/06/30 01:37:59;;;;;;;50.28;45.85;;;18.40;99.90;;;;;;5073899;28;20094;-74
2023/06/30 01:40:25;;;;;;;52.08;47.50;;;18.30;99.90;;;;;;5079991;28;20042;-73
2023/06/30 01:42:55;;;;;;;56.83;51.85;;;18.30;99.90;;;;;;5070616;28;20119;-73
2023/06/30 01:45:23;;;;;;;51.75;47.63;;;18.30;99.90;;;;;;5075792;28;20040;-73
2023/06/30 01:47:49;;;;;;;53.10;48.78;;;18.20;99.90;;;;;;5071289;28;20410;-73
2023/06/30 01:50:15;;;;;;;52.75;48.53;;;18.10;99.90;;;;;;5072338;28;20056;-73
2023/06/30 01:52:41;;;;;;;53.97;49.25;;;18.20;99.90;;;;;;5071558;28;20847;-73
2023/06/30 01:55:07;;;;;;;56.00;51.30;;;18.20;99.90;;;;;;5051715;28;20031;-73
2023/06/30 01:57:33;;;;;;;52.63;48.47;;;18.10;99.90;;;;;;5053432;28;20046;-73
2023/06/30 01:59:58;;;;;;;53.22;49.03;;;18.20;99.90;;;;;;5080181;28;20033;-73
2023/06/30 02:02:24;;;;;;;52.13;47.67;;;18.20;99.90;;;;;;5077800;28;20048;-73
2023/06/30 02:04:50;;;;;;;56.63;51.80;;;18.20;99.90;;;;;;5071858;28;20040;-73
2023/06/30 02:07:16;;;;;;;55.67;50.95;;;18.20;99.90;;;;;;5073939;28;20097;-73
2023/06/30 02:09:41;;;;;;;53.22;48.95;;;18.20;99.90;;;;;;5073233;28;20028;-73
2023/06/30 02:12:07;;;;;;;53.25;48.80;;;18.10;99.90;;;;;;5056738;28;20040;-73
2023/06/30 02:14:33;;;;;;;56.38;51.60;;;18.10;99.90;;;;;;5051349;28;20028;-73
2023/06/30 02:16:58;;;;;;;53.70;49.22;;;18.00;99.90;;;;;;5068690;28;20044;-73
2023/06/30 02:19:24;;;;;;;54.08;49.38;;;18.00;99.90;;;;;;5052809;28;20028;-73
2023/06/30 02:21:52;;;;;;;53.20;48.10;;;18.00;99.90;;;;;;5071195;28;20396;-73
2023/06/30 02:24:18;;;;;;;54.33;49.97;;;18.00;99.90;;;;;;5073997;28;20605;-73
2023/06/30 02:26:46;;;;;;;49.10;44.55;;;17.90;99.90;;;;;;5074302;28;20116;-73
2023/06/30 02:29:12;;;;;;;52.45;47.97;;;17.90;99.90;;;;;;5077312;28;20636;-73
2023/06/30 02:31:38;;;;;;;52.05;47.47;;;17.90;99.90;;;;;;5085404;28;20071;-73
2023/06/30 02:34:03;;;;;;;53.58;49.20;;;18.00;99.90;;;;;;5071410;28;20041;-73
2023/06/30 02:36:29;;;;;;;55.80;51.47;;;17.90;99.90;;;;;;5070744;28;20521;-73
2023/06/30 02:38:55;;;;;;;57.92;53.40;;;17.90;99.90;;;;;;5073978;28;20056;-73
2023/06/30 02:41:21;;;;;;;56.35;51.53;;;17.90;99.90;;;;;;5070427;28;20063;-73
2023/06/30 02:43:46;;;;;;;57.95;53.47;;;17.90;99.90;;;;;;5071432;28;20085;-73
2023/06/30 02:46:12;;;;;;;56.10;51.30;;;17.70;99.90;;;;;;5069256;28;20395;-73
2023/06/30 02:48:38;;;;;;;52.33;48.08;;;17.70;99.90;;;;;;5071697;28;20151;-73
2023/06/30 02:51:03;;;;;;;54.83;50.53;;;17.60;99.90;;;;;;5076853;28;20032;-74
2023/06/30 02:53:29;;;;;;;56.63;52.00;;;17.70;99.90;;;;;;5077119;28;20055;-73
2023/06/30 02:55:55;;;;;;;54.30;49.38;;;17.70;99.90;;;;;;5070011;28;20025;-73
2023/06/30 02:58:22;;;;;;;57.70;52.80;;;17.70;99.90;;;;;;5070179;28;20029;-73
2023/06/30 03:00:49;;;;;;;57.53;52.83;;;17.70;99.90;;;;;;5085661;28;20044;-73
2023/06/30 03:03:14;;;;;;;60.72;55.78;;;17.40;99.90;;;;;;5075826;28;20039;-73
2023/06/30 03:05:40;;;;;;;56.90;52.47;;;17.40;99.90;;;;;;5072864;28;20025;-73
2023/06/30 03:08:06;;;;;;;57.05;52.13;;;17.40;99.90;;;;;;5072100;28;20037;-73
2023/06/30 03:10:32;;;;;;;58.05;53.40;;;17.40;99.90;;;;;;5075294;28;20817;-73
2023/06/30 03:12:57;;;;;;;55.95;50.80;;;17.40;99.90;;;;;;5077335;28;20418;-73
2023/06/30 03:15:23;;;;;;;53.08;48.45;;;17.40;99.90;;;;;;5074249;28;20121;-73
2023/06/30 03:17:49;;;;;;;56.65;52.10;;;17.30;99.90;;;;;;5076408;28;20051;-73
2023/06/30 03:20:15;;;;;;;59.83;54.75;;;17.30;99.90;;;;;;5076338;28;20439;-73
2023/06/30 03:22:41;;;;;;;51.88;47.22;;;17.20;99.90;;;;;;5091526;28;20161;-73
2023/06/30 03:25:08;;;;;;;56.95;52.30;;;17.30;99.90;;;;;;5077583;28;20037;-73
2023/06/30 03:27:34;;;;;;;53.88;49.22;;;17.20;99.90;;;;;;5074862;28;20495;-73
2023/06/30 03:30:04;;;;;;;54.78;50.15;;;17.20;99.90;;;;;;5075371;28;20036;-73
2023/06/30 03:32:31;;;;;;;50.60;46.25;;;17.30;99.90;;;;;;5075519;28;20390;-73
2023/06/30 03:34:56;;;;;;;55.42;50.50;;;17.30;99.90;;;;;;5071159;28;20048;-73
2023/06/30 03:37:22;;;;;;;53.00;48.63;;;17.30;99.90;;;;;;5053998;28;20028;-73
2023/06/30 03:39:48;;;;;;;52.70;47.63;;;17.30;99.90;;;;;;5089107;28;20029;-73
2023/06/30 03:42:14;;;;;;;50.72;45.90;;;17.30;99.90;;;;;;5074905;28;20024;-73
2023/06/30 03:44:39;;;;;;;51.70;47.25;;;17.30;99.90;;;;;;5076175;28;20024;-73
2023/06/30 03:47:05;;;;;;;48.58;44.63;;;17.50;99.90;;;;;;5074652;28;20038;-73
2023/06/30 03:49:30;;;;;;;51.05;46.80;;;17.50;99.90;;;;;;5077473;28;20612;-73
2023/06/30 03:51:56;;;;;;;50.05;45.53;;;17.40;99.90;;;;;;5075858;28;20120;-73
2023/06/30 03:54:22;;;;;;;51.05;46.40;;;17.40;99.90;;;;;;5068628;28;20486;-73
2023/06/30 03:56:47;;;;;;;49.33;44.80;;;17.40;99.90;;;;;;5080718;28;20583;-73
2023/06/30 03:59:13;;;;;;;53.15;48.40;;;17.30;99.90;;;;;;5072737;28;20386;-73
2023/06/30 04:01:40;;;;;;;58.17;53.50;;;17.20;99.90;;;;;;5074109;28;20078;-73
2023/06/30 04:04:06;;;;;;;54.22;49.33;;;17.20;99.90;;;;;;5075759;28;20473;-73
2023/06/30 04:06:33;;;;;;;53.33;48.47;;;17.30;99.90;;;;;;5089583;28;20070;-74
2023/06/30 04:08:59;;;;;;;55.70;50.83;;;17.30;99.90;;;;;;5081484;28;20082;-73
2023/06/30 04:11:25;;;;;;;52.35;47.65;;;17.30;99.90;;;;;;5073608;28;20113;-74
2023/06/30 04:13:51;;;;;;;53.05;47.88;;;17.30;99.90;;;;;;5068400;28;20115;-72
2023/06/30 04:16:20;;;;;;;52.45;47.67;;;17.30;99.90;;;;;;5074433;28;20037;-73
2023/06/30 04:18:45;;;;;;;54.13;49.25;;;17.30;99.90;;;;;;5077288;28;20802;-73
2023/06/30 04:21:11;;;;;;;52.42;47.83;;;17.20;99.90;;;;;;5071388;28;20043;-73
2023/06/30 04:23:37;;;;;;;53.05;48.55;;;17.10;99.90;;;;;;5073688;28;20049;-73
2023/06/30 04:26:04;;;;;;;54.03;49.55;;;17.10;99.90;;;;;;5071449;28;20375;-73
2023/06/30 04:28:30;;;;;;;50.28;45.95;;;17.30;99.90;;;;;;5090097;28;20048;-73
2023/06/30 04:30:58;;;;;;;53.22;48.47;;;17.20;99.90;;;;;;5073489;28;20582;-73
2023/06/30 04:33:24;;;;;;;52.10;47.60;;;17.30;99.90;;;;;;5068884;28;20040;-73
2023/06/30 04:35:49;;;;;;;51.47;47.35;;;17.30;99.90;;;;;;5073622;28;20147;-74
2023/06/30 04:38:15;;;;;;;49.67;45.15;;;17.30;99.90;;;;;;5072346;28;20527;-75
2023/06/30 04:40:41;;;;;;;53.55;49.00;;;17.30;99.90;;;;;;5075338;28;20040;-75
2023/06/30 04:43:12;;;;;;;48.15;43.55;;;17.20;99.90;;;;;;5068987;28;20025;-76
2023/06/30 04:45:41;;;;;;;44.47;39.97;;;17.30;99.90;;;;;;5072423;28;20033;-75
2023/06/30 04:48:10;;;;;;;48.53;43.72;;;17.40;99.90;;;;;;5078519;28;20085;-75
2023/06/30 04:50:36;;;;;;;43.95;39.95;;;17.30;99.90;;;;;;5054522;28;20395;-76
2023/06/30 04:53:02;;;;;;;43.42;39.08;;;17.40;99.90;;;;;;5073176;28;20502;-76
2023/06/30 04:55:27;;;;;;;47.15;42.40;;;17.40;99.90;;;;;;5075136;28;20032;-76
2023/06/30 04:57:55;;;;;;;45.88;41.90;;;17.40;99.90;;;;;;5076853;28;20028;-77
2023/06/30 05:00:21;;;;;;;47.17;42.58;;;17.40;99.90;;;;;;5073830;28;20025;-76
2023/06/30 05:02:47;;;;;;;44.17;40.17;;;17.50;99.90;;;;;;5078952;28;20165;-75
2023/06/30 05:05:13;;;;;;;44.40;40.13;;;17.40;99.90;;;;;;5072525;28;20032;-78
2023/06/30 05:07:39;;;;;;;44.13;39.75;;;17.50;99.90;;;;;;5072154;28;20043;-79
2023/06/30 05:10:05;;;;;;;43.30;39.25;;;17.50;99.90;;;;;;5075216;28;20035;-79
2023/06/30 05:12:36;;;;;;;41.78;37.55;;;17.60;99.90;;;;;;5075399;28;20701;-79
2023/06/30 05:15:01;;;;;;;46.13;41.72;;;17.40;99.90;;;;;;5075305;28;20718;-79
2023/06/30 05:17:27;;;;;;;46.30;41.90;;;17.50;99.90;;;;;;5073562;28;20117;-81
2023/06/30 05:19:53;;;;;;;45.40;41.08;;;17.40;99.90;;;;;;5076980;28;20401;-78
2023/06/30 05:22:18;;;;;;;48.65;43.90;;;17.40;99.90;;;;;;5091108;28;20501;-79
2023/06/30 05:24:44;;;;;;;43.80;39.47;;;17.40;99.90;;;;;;5053953;28;20420;-80
2023/06/30 05:27:10;;;;;;;45.80;41.30;;;17.30;99.90;;;;;;5080670;28;20052;-78
2023/06/30 05:29:35;;;;;;;44.92;40.50;;;17.40;99.90;;;;;;5075677;28;20119;-79
2023/06/30 05:32:01;;;;;;;47.15;42.75;;;17.40;99.90;;;;;;5075114;28;20036;-78
2023/06/30 05:34:28;;;;;;;47.78;41.67;;;17.40;99.90;;;;;;5074746;28;20542;-78
2023/06/30 05:36:55;;;;;;;49.33;44.42;;;17.50;99.90;;;;;;5072092;28;20060;-78
2023/06/30 05:39:22;;;;;;;47.30;42.88;;;17.40;99.90;;;;;;5089261;28;20051;-77
2023/06/30 05:41:47;;;;;;;44.50;40.22;;;17.40;99.90;;;;;;5079319;28;20644;-79
2023/06/30 05:44:13;;;;;;;46.25;41.70;;;17.40;99.90;;;;;;5073785;28;20036;-76
2023/06/30 05:46:42;;;;;;;54.28;49.25;;;17.40;99.90;;;;;;5055322;28;20059;-76
2023/06/30 05:49:07;;;;;;;46.08;41.70;;;17.40;99.90;;;;;;5072809;28;20116;-76
2023/06/30 05:51:34;;;;;;;45.13;40.25;;;17.40;99.90;;;;;;5075495;28;20107;-77
2023/06/30 05:54:03;;;;;;;44.05;38.65;;;17.50;99.90;;;;;;5059096;28;20491;-77
2023/06/30 05:56:29;;;;;;;60.20;54.60;;;22.20;99.90;;;;;;5070773;28;20046;-75
2023/06/30 05:58:56;;;;;;;65.47;60.22;;;21.90;99.90;;;;;;5058741;28;20031;-77
2023/06/30 06:01:22;;;;;;;58.53;52.78;;;21.60;99.90;;;;;;5079108;28;20390;-77
2023/06/30 06:03:48;;;;;;;67.30;61.63;;;21.60;99.90;;;;;;5075166;28;20032;-77
2023/06/30 06:06:14;;;;;;;67.15;60.80;;;21.40;99.90;;;;;;5075874;28;20027;-77
2023/06/30 06:08:43;;;;;;;66.05;60.33;;;20.40;99.90;;;;;;5073037;28;20089;-77
2023/06/30 06:11:09;;;;;;;85.38;78.78;;;20.30;99.90;;;;;;5074646;28;20482;-76
2023/06/30 06:13:39;;;;;;;70.63;65.07;;;20.50;99.90;;;;;;5076935;28;20071;-76
2023/06/30 06:16:05;;;;;;;68.40;63.03;;;20.60;99.90;;;;;;5055497;28;21449;-76
2023/06/30 06:18:32;;;;;;;67.55;62.03;;;20.50;99.90;;;;;;5094228;28;20279;-76
2023/06/30 06:20:59;;;;;;;71.15;65.30;;;20.60;99.90;;;;;;5075784;28;20039;-75
2023/06/30 06:23:25;;;;;;;69.22;63.63;;;20.70;99.90;;;;;;5079979;28;20076;-75
2023/06/30 06:25:51;;;;;;;75.15;69.55;;;20.80;99.90;;;;;;5076149;28;20063;-75
2023/06/30 06:28:17;;;;;;;55.58;51.15;;;21.00;99.90;;;;;;5072713;28;20025;-75
2023/06/30 06:30:43;;;;;;;63.30;58.63;;;21.20;99.90;;;;;;5074009;28;20043;-75
2023/06/30 06:33:09;;;;;;;65.65;60.33;;;21.10;99.90;;;;;;5075058;28;20024;-75
2023/06/30 06:35:34;;;;;;;60.47;55.47;;;21.20;99.90;;;;;;5070411;28;20173;-75
2023/06/30 06:38:00;;;;;;;59.97;54.33;;;21.00;99.90;;;;;;5056591;28;20093;-75
2023/06/30 06:40:28;;;;;;;63.15;58.22;;;21.10;99.90;;;;;;5075841;28;20059;-75
2023/06/30 06:42:55;;;;;;;60.33;54.42;;;21.10;99.90;;;;;;5072428;28;20090;-75
2023/06/30 06:45:21;;;;;;;60.53;55.80;;;21.00;99.90;;;;;;5076748;28;20558;-75
2023/06/30 06:48:15;;;;;;;66.70;60.85;;;21.10;99.90;;;;;;5088549;28;20032;-75
2023/06/30 06:50:40;;;;;;;60.63;55.55;;;21.10;99.90;;;;;;5078168;28;20056;-75
2023/06/30 06:53:06;;;;;;;67.18;61.70;;;21.00;99.90;;;;;;5072256;28;20071;-75
2023/06/30 06:55:32;;;;;;;65.97;60.60;;;21.10;99.90;;;;;;5073715;28;20036;-75
2023/06/30 06:57:57;;;;;;;60.55;55.38;;;21.10;99.90;;;;;;5056102;28;20090;-75
2023/06/30 07:00:23;;;;;;;61.58;56.10;;;21.20;99.90;;;;;;5086864;28;20498;-75
2023/06/30 07:02:50;;;;;;;64.93;59.08;;;21.30;99.90;;;;;;5079858;28;20039;-75
2023/06/30 07:05:16;;;;;;;62.00;56.72;;;21.30;99.90;;;;;;5072732;28;20158;-75
2023/06/30 07:07:42;;;;;;;58.20;53.08;;;21.40;99.90;;;;;;5055402;28;20059;-75
2023/06/30 07:10:08;;;;;;;61.63;56.63;;;21.50;99.90;;;;;;5077181;28;20510;-75
2023/06/30 07:12:33;;;;;;;63.58;58.65;;;21.50;99.90;;;;;;5088732;28;20055;-75
2023/06/30 07:14:59;;;;;;;62.90;57.63;;;21.50;99.90;;;;;;5087110;28;20067;-73
2023/06/30 07:17:25;;;;;;;65.65;60.03;;;21.50;99.90;;;;;;5076037;28;20062;-74
2023/06/30 07:19:51;;;;;;;65.40;59.95;;;21.50;99.90;;;;;;5070951;28;20132;-73
2023/06/30 07:22:16;;;;;;;64.95;59.35;;;21.60;99.90;;;;;;5054154;28;20035;-75
2023/06/30 07:24:42;;;;;;;71.50;66.55;;;21.70;99.90;;;;;;5074274;28;21254;-75
2023/06/30 07:27:08;;;;;;;57.58;52.70;;;21.80;99.90;;;;;;5073237;28;20119;-75
2023/06/30 07:29:33;;;;;;;50.00;46.28;;;21.80;99.90;;;;;;5092594;28;20040;-73
2023/06/30 07:31:59;;;;;;;55.58;51.55;;;21.70;99.90;;;;;;5072028;28;20040;-73
2023/06/30 07:34:25;;;;;;;59.58;55.05;;;21.60;99.90;;;;;;5072030;28;20425;-73
2023/06/30 07:36:51;;;;;;;60.78;56.47;;;21.70;99.90;;;;;;5075073;28;20024;-73
2023/06/30 07:39:18;;;;;;;51.03;47.33;;;21.60;99.90;;;;;;5091388;28;20032;-74
2023/06/30 07:41:43;;;;;;;52.20;48.20;;;21.30;99.90;;;;;;5074227;28;20067;-73
2023/06/30 07:44:11;;;;;;;62.60;58.15;;;21.30;99.90;;;;;;5076620;28;20075;-73
2023/06/30 07:46:37;;;;;;;51.42;47.33;;;21.40;99.90;;;;;;5076741;28;20020;-73
2023/06/30 07:49:03;;;;;;;51.10;47.35;;;21.40;99.90;;;;;;5076063;28;20404;-74
2023/06/30 07:51:29;;;;;;;42.25;38.65;;;21.30;99.90;;;;;;5072379;28;20036;-73
2023/06/30 07:53:55;;;;;;;50.50;46.78;;;21.00;99.90;;;;;;5055891;28;21074;-73
2023/06/30 07:56:21;;;;;;;45.33;41.83;;;20.90;99.90;;;;;;5076844;28;20040;-73
2023/06/30 07:58:47;;;;;;;46.58;43.28;;;20.80;99.90;;;;;;5074017;28;20028;-73
2023/06/30 08:01:12;;;;;;;45.00;41.55;;;20.80;99.90;;;;;;5079560;28;20051;-73
2023/06/30 08:03:38;;;;;;;32.00;29.00;;;20.70;99.90;;;;;;5090498;28;20052;-73
2023/06/30 08:06:04;;;;;;;37.10;33.78;;;20.20;99.90;;;;;;5075500;28;20055;-73
2023/06/30 08:08:31;;;;;;;32.20;29.50;;;20.20;99.90;;;;;;5075468;28;20503;-73
2023/06/30 08:10:57;;;;;;;35.92;32.88;;;20.30;99.90;;;;;;5074739;28;20024;-74
2023/06/30 08:13:23;;;;;;;42.25;39.10;;;20.20;99.90;;;;;;5077965;28;20037;-74
2023/06/30 08:15:49;;;;;;;46.47;42.95;;;21.10;99.90;;;;;;5076785;28;20032;-73
2023/06/30 08:18:15;;;;;;;41.42;38.08;;;20.90;99.90;;;;;;5076311;28;20060;-74
2023/06/30 08:20:41;;;;;;;46.50;43.28;;;20.70;99.90;;;;;;5083818;28;20064;-74
2023/06/30 08:23:07;;;;;;;42.80;39.45;;;20.70;99.90;;;;;;5076744;28;21351;-73
2023/06/30 08:25:33;;;;;;;41.90;38.65;;;20.80;99.90;;;;;;5056521;28;20029;-73
2023/06/30 08:27:59;;;;;;;39.60;36.42;;;20.60;99.90;;;;;;5080603;28;20085;-73
2023/06/30 08:30:25;;;;;;;38.55;35.47;;;20.30;99.90;;;;;;5092513;28;20028;-74
2023/06/30 08:32:51;;;;;;;34.13;30.95;;;20.00;99.90;;;;;;5056359;28;20080;-73
2023/06/30 08:35:17;;;;;;;31.02;28.23;;;19.80;99.90;;;;;;5079079;28;20059;-73
2023/06/30 08:37:42;;;;;;;40.28;37.10;;;19.50;99.90;;;;;;5075035;28;20071;-74
2023/06/30 08:40:09;;;;;;;35.53;32.63;;;19.30;99.90;;;;;;5063814;28;20036;-73
2023/06/30 08:42:39;;;;;;;44.90;41.40;;;19.30;99.90;;;;;;5093730;28;20037;-73
2023/06/30 08:45:06;;;;;;;36.28;33.33;;;19.30;99.90;;;;;;5080016;28;20024;-73
2023/06/30 08:47:34;;;;;;;35.80;32.65;;;19.00;99.90;;;;;;5074507;28;20041;-74
2023/06/30 08:50:00;;;;;;;44.97;40.95;;;18.90;99.90;;;;;;5075428;28;20060;-74
2023/06/30 08:52:26;;;;;;;58.63;54.20;;;18.80;99.90;;;;;;5081482;28;20032;-74
2023/06/30 08:54:53;;;;;;;63.55;59.00;;;19.10;99.90;;;;;;5079957;28;20033;-74
2023/06/30 08:57:20;;;;;;;52.97;48.00;;;19.80;99.90;;;;;;5078789;28;20421;-74
2023/06/30 08:59:46;;;;;;;56.55;52.30;;;20.00;99.90;;;;;;5081170;28;20486;-75
2023/06/30 09:02:13;;;;;;;54.05;50.00;;;20.20;99.90;;;;;;5075529;28;20032;-74
2023/06/30 09:04:40;;;;;;;60.45;55.97;;;20.10;99.90;;;;;;5080440;28;20031;-74
2023/06/30 09:07:15;;;;;;;54.13;50.30;;;20.10;99.90;;;;;;5076897;28;20048;-76
2023/06/30 09:09:45;;;;;;;48.30;44.67;;;19.80;99.90;;;;;;5056521;28;20024;-75
2023/06/30 09:12:12;;;;;;;50.97;47.28;;;19.40;99.90;;;;;;5089654;28;20037;-74
2023/06/30 09:14:40;;;;;;;54.20;50.40;;;19.30;99.90;;;;;;5076737;28;20036;-76
2023/06/30 09:17:06;;;;;;;52.20;48.03;;;19.30;99.90;;;;;;5075895;28;20082;-75
2023/06/30 09:19:32;;;;;;;51.20;46.45;;;18.90;99.90;;;;;;5078444;28;20434;-77
2023/06/30 09:21:58;;;;;;;58.28;53.83;;;20.40;99.90;;;;;;5090729;28;20402;-76
2023/06/30 09:24:25;;;;;;;53.85;50.03;;;21.20;99.90;;;;;;5080708;28;20430;-76
2023/06/30 09:26:52;;;;;;;50.75;46.85;;;21.40;99.90;;;;;;5071567;28;20031;-75
2023/06/30 09:29:23;;;;;;;48.38;44.75;;;21.70;99.90;;;;;;5075308;28;20020;-74
2023/06/30 09:31:52;;;;;;;48.28;44.35;;;21.70;99.90;;;;;;5072648;28;20037;-76
2023/06/30 09:34:21;;;;;;;52.30;49.00;;;21.30;99.90;;;;;;5074764;28;20060;-76
2023/06/30 09:36:52;;;;;;;56.30;52.67;;;21.10;99.90;;;;;;5056772;28;20112;-73
2023/06/30 09:39:19;;;;;;;52.00;48.33;;;21.60;99.90;;;;;;5074204;28;20038;-73
2023/06/30 09:41:46;;;;;;;49.88;46.50;;;22.00;99.90;;;;;;5074462;28;20388;-73
2023/06/30 09:44:12;;;;;;;51.50;47.53;;;21.60;99.90;;;;;;5083306;28;20039;-74
2023/06/30 09:46:52;;;;;;;38.42;35.30;;;21.80;99.90;;;;;;5080466;28;20154;-73
2023/06/30 09:49:30;;;;;;;34.38;31.83;;;22.10;99.90;;;;;;5072486;28;20478;-73
2023/06/30 09:51:57;;;;;;;46.88;43.25;;;22.00;99.90;;;;;;5073153;28;20036;-74
2023/06/30 09:54:26;;;;;;;47.22;43.33;;;21.60;99.90;;;;;;5070240;28;20422;-73
2023/06/30 09:56:58;;;;;;;46.60;43.13;;;21.80;99.90;;;;;;5068850;28;20484;-74
2023/06/30 09:59:25;;;;;;;45.03;41.50;;;22.00;99.90;;;;;;5088425;28;20036;-73
2023/06/30 10:01:55;;;;;;;43.40;40.35;;;21.70;99.90;;;;;;5067503;28;20376;-73
2023/06/30 10:04:21;;;;;;;41.63;38.22;;;21.80;99.90;;;;;;5071300;28;20199;-73
2023/06/30 10:06:51;;;;;;;42.47;39.28;;;21.90;99.90;;;;;;5073867;28;20313;-75
2023/06/30 10:09:23;;;;;;;35.70;32.85;;;21.80;99.90;;;;;;5057676;28;20024;-76
2023/06/30 10:11:52;;;;;;;30.90;28.40;;;21.60;99.90;;;;;;5087509;28;20435;-75
2023/06/30 10:14:27;;;;;;;35.13;31.98;;;21.80;99.90;;;;;;5073144;28;20554;-75
2023/06/30 10:16:59;;;;;;;38.33;35.63;;;21.70;99.90;;;;;;5073902;28;20028;-72
2023/06/30 10:19:25;;;;;;;34.53;31.05;;;21.80;99.90;;;;;;5070568;28;20098;-75
2023/06/30 10:21:52;;;;;;;34.50;31.33;;;21.60;99.90;;;;;;5053853;28;20035;-75
2023/06/30 10:24:23;;;;;;;38.13;35.00;;;21.10;99.90;;;;;;5075384;28;20054;-75
2023/06/30 10:26:50;;;;;;;35.08;32.45;;;20.80;99.90;;;;;;5076679;28;20489;-75
2023/06/30 10:29:16;;;;;;;51.03;46.85;;;20.40;99.90;;;;;;5076607;28;20025;-74
2023/06/30 10:31:42;;;;;;;33.75;30.70;;;20.20;99.90;;;;;;5074244;28;20062;-75
2023/06/30 10:34:10;;;;;;;31.92;29.33;;;20.20;99.90;;;;;;5072088;28;20418;-75
2023/06/30 10:36:36;;;;;;;30.58;27.65;;;20.20;99.90;;;;;;5076215;28;20407;-75
2023/06/30 10:39:03;;;;;;;29.20;26.50;;;19.90;99.90;;;;;;5072613;28;20060;-72
2023/06/30 10:41:29;;;;;;;28.77;26.17;;;20.00;99.90;;;;;;5072975;28;20036;-72
2023/06/30 10:44:13;;;;;;;31.95;28.98;;;19.70;99.90;;;;;;5094539;28;20521;-72
2023/06/30 10:46:51;;;;;;;30.27;27.70;;;20.30;99.90;;;;;;5068642;28;20029;-72
2023/06/30 10:49:33;;;;;;;31.95;29.25;;;20.70;99.90;;;;;;5076238;28;20115;-73
2023/06/30 10:52:01;;;;;;;28.85;26.25;;;20.90;99.90;;;;;;5072868;28;20144;-73
2023/06/30 10:54:29;;;;;;;28.05;25.42;;;20.90;99.90;;;;;;5073114;28;20402;-74
2023/06/30 10:57:05;;;;;;;24.98;22.42;;;21.20;99.90;;;;;;5072933;28;20478;-74
2023/06/30 10:59:45;;;;;;;25.42;22.80;;;21.60;99.90;;;;;;5071763;28;20039;-73
2023/06/30 11:02:13;;;;;;;25.85;23.13;;;21.60;99.90;;;;;;5076347;28;20703;-73
2023/06/30 11:04:41;;;;;;;26.92;24.23;;;21.10;99.90;;;;;;5074018;28;20025;-73
2023/06/30 11:07:10;;;;;;;27.80;25.27;;;21.80;99.90;;;;;;5073028;28;20784;-73
2023/06/30 11:09:47;;;;;;;27.45;24.77;;;21.40;99.90;;;;;;5073349;28;20037;-73
2023/06/30 11:12:51;;;;;;;27.40;25.02;;;21.60;99.90;;;;;;5067699;28;20057;-74
2023/06/30 11:15:27;;;;;;;29.15;26.75;;;21.80;99.90;;;;;;5070218;28;20566;-74
2023/06/30 11:17:54;;;;;;;32.97;29.88;;;22.20;99.90;;;;;;5068929;28;20797;-74
2023/06/30 11:20:26;;;;;;;30.10;27.40;;;22.00;99.90;;;;;;5071007;28;20031;-74
2023/06/30 11:22:56;;;;;;;30.92;28.35;;;22.50;96.40;;;;;;5068940;28;20132;-73
2023/06/30 11:25:21;;;;;;;30.20;27.50;;;22.70;83.80;;;;;;5071896;28;20379;-74
2023/06/30 11:27:47;;;;;;;26.30;24.00;;;22.80;83.50;;;;;;5073016;28;20044;-74
2023/06/30 11:30:21;;;;;;;25.23;22.20;;;23.00;76.40;;;;;;5086522;28;20033;-73
2023/06/30 11:32:47;;;;;;;28.42;25.77;;;23.00;78.00;;;;;;5070532;28;20105;-73
2023/06/30 11:35:17;;;;;;;25.70;22.83;;;22.80;73.80;;;;;;5053372;28;20062;-73
2023/06/30 11:37:51;;;;;;;26.63;24.13;;;23.40;74.20;;;;;;5070622;28;20590;-73
2023/06/30 11:40:17;;;;;;;30.25;27.52;;;23.50;70.30;;;;;;5058373;28;20036;-73
2023/06/30 11:42:44;;;;;;;26.85;24.10;;;23.20;69.00;;;;;;5088347;28;20177;-74
2023/06/30 11:45:13;;;;;;;31.77;29.10;;;23.70;67.20;;;;;;5071067;28;20111;-74
2023/06/30 11:47:44;;;;;;;25.45;23.25;;;23.60;64.70;;;;;;5071977;28;20085;-74
2023/06/30 11:50:11;;;;;;;29.83;27.35;;;24.20;66.40;;;;;;5053087;28;20036;-73
2023/06/30 11:52:39;;;;;;;26.65;24.23;;;24.20;61.90;;;;;;5069283;28;20119;-73
2023/06/30 11:55:09;;;;;;;25.52;23.15;;;24.70;65.20;;;;;;5070334;28;20043;-72
2023/06/30 11:57:44;;;;;;;39.83;36.72;;;25.10;62.60;;;;;;5069968;28;20111;-74
2023/06/30 12:00:12;;;;;;;29.42;26.90;;;24.40;59.50;;;;;;5072073;28;20052;-74
2023/06/30 12:02:45;;;;;;;25.48;23.08;;;24.20;61.60;;;;;;5071300;28;20036;-74
2023/06/30 12:05:26;;;;;;;31.15;28.65;;;24.60;63.10;;;;;;5071941;28;20017;-74
2023/06/30 12:07:55;;;;;;;26.38;23.60;;;24.40;61.70;;;;;;5066767;28;20059;-74
2023/06/30 12:10:22;;;;;;;38.92;35.83;;;24.80;62.60;;;;;;5035285;28;20128;-74
2023/06/30 12:12:57;;;;;;;58.28;54.88;;;25.50;61.50;;;;;;5070256;28;20181;-73
2023/06/30 12:15:24;;;;;;;46.33;43.42;;;25.60;56.10;;;;;;5071987;28;20133;-75
2023/06/30 12:17:54;;;;;;;35.72;33.13;;;25.60;58.70;;;;;;5071557;28;20066;-73
2023/06/30 12:20:35;;;;;;;34.60;31.98;;;25.60;55.70;;;;;;5075829;28;20808;-73
2023/06/30 12:23:01;;;;;;;25.77;23.38;;;25.30;57.30;;;;;;5071752;28;20488;-73
2023/06/30 12:25:33;;;;;;;26.63;24.02;;;25.50;57.10;;;;;;5071144;28;20036;-74
2023/06/30 12:28:01;;;;;;;26.85;24.48;;;25.80;55.50;;;;;;5070718;28;20094;-74
2023/06/30 12:30:27;;;;;;;65.60;62.08;;;26.40;57.50;;;;;;5071262;28;20474;-74